Valle Toledo, Valles Caldera, New Mexico Weather observations

Data are for 10 minute period ending at time listed.
 Day   Time   Solar   Ave.   Ave.  Ave.  Vector  Max.   Baro.   Total    
  of    of     Rad.   Air    Rel.  Wind   Wind   Wind  Press.  Precip.   
Year   Day            Temp.  Hum.  Speed  Dir.   Gust                    
2014   (MST)  Kw/m2    F      %     mph   deg.    mph    mb.     in.     
-------------------------------------------------------------------------
 303    1:30   0.00   43.3    17    3.2   148     9.0   735.9    0.00 
 303    1:40   0.00   43.0    17    2.6   160     4.8   736.1    0.00 
 303    1:50   0.00   42.3    18    2.1   124     3.6   736.1    0.00 
 303    2:00   0.00   42.5    15    3.4   254     9.6   736.1    0.00 
 303    2:10   0.00   45.1    13    5.5   280    11.3   736.0    0.00 
 303    2:20   0.00   45.3    14    4.2   261    10.2   736.0    0.00 
 303    2:30   0.00   43.9    16    2.6   257     6.6   736.1    0.00 
 303    2:40   0.00   43.3    16    2.7   300     5.4   736.1    0.00 
 303    2:50   0.00   41.4    17    2.5    10     4.8   736.2    0.00 
 303    3:00   0.00   41.1    18    2.9    51     4.8   736.2    0.00 
 303    3:10   0.00   40.9    17    2.0    42     4.2   736.2    0.00 
 303    3:20   0.00   41.0    17    2.1    63     4.8   736.2    0.00 
 303    3:30   0.00   40.1    18    2.9    55     4.8   736.1    0.00 
 303    3:40   0.00   39.9    19    2.9    54     5.4   736.2    0.00 
 303    3:50   0.00   40.1    18    3.4    55     4.8   736.2    0.00 
 303    4:00   0.00   39.7    19    3.2    46     5.4   736.2    0.00 
 303    4:10   0.00   39.1    20    3.1    45     4.8   736.2    0.00 
 303    4:20   0.00   39.8    20    3.8    37     6.0   736.3    0.00 
 303    4:30   0.00   39.0    22    3.3    36     4.8   736.4    0.00 
 303    4:40   0.00   37.8    26    4.2    35     5.4   736.4    0.00 
 303    4:50   0.00   37.0    28    2.6    43     4.8   736.5    0.00 
 303    5:00   0.00   36.8    31    2.8    40     4.2   736.6    0.00 
 303    5:10   0.00   36.9    30    3.7    40     5.4   736.6    0.00 
 303    5:20   0.00   36.5    32    4.0    36     5.4   736.7    0.00 
 303    5:30   0.00   36.1    34    4.8    34     6.0   736.7    0.00 
 303    5:40   0.00   36.0    33    4.7    36     6.0   736.7    0.00 
 303    5:50   0.00   35.6    33    3.9    37     6.0   736.6    0.00 
 303    6:00   0.00   34.8    36    3.4    54     4.8   736.7    0.00 
 303    6:10   0.00   34.5    33    3.3    33     4.8   736.7    0.00 
 303    6:20   0.00   34.9    31    2.6    42     3.6   736.7    0.00 
 303    6:30   0.00   34.7    31    2.5    22     4.8   736.8    0.00 
 303    6:40   0.01   34.6    32    3.3    42     4.8   736.9    0.00 
 303    6:50   0.01   35.0    33    3.7    44     5.4   736.9    0.00 
 303    7:00   0.01   35.1    34    3.3    42     4.2   736.9    0.00 
 303    7:10   0.01   35.8    30    1.8    35     3.6   737.1    0.00 
 303    7:20   0.10   36.3    32    3.5    37     4.2   737.2    0.00 
 303    7:30   0.12   40.1    29    1.8    33     4.2   737.3    0.00 
 303    7:40   0.19   45.4    25    1.1    38     2.4   737.5    0.00 
 303    7:50   0.22   48.6    24    1.5    16     2.4   737.6    0.00 
 303    8:00   0.24   50.0    23    1.6    13     2.4   737.7    0.00 
 303    8:10   0.06   51.5    22    1.6   104     3.0   737.9    0.00 
 303    8:20   0.07   47.9    26    0.3   156     2.4   738.0    0.00 
 303    8:30   0.05   47.4    26    2.0   250     3.0   738.0    0.00 
 303    8:40   0.16   48.2    26    2.4   218     3.6   738.0    0.00 
 303    8:50   0.39   49.8    20    2.9   159     5.4   737.9    0.00 
 303    9:00   0.43   53.3    16    3.1   175     4.8   738.0    0.00 
 303    9:10   0.46   55.6    16    2.4   191     3.6   738.0    0.00 
 303    9:20   0.49   56.6    14    3.4   197     5.4   738.1    0.00 
 303    9:30   0.51   57.5    14    3.8   150     6.0   738.1    0.00 
 303    9:40   0.54   58.5    13    3.5   156     6.6   738.0    0.00 
 303    9:50   0.56   59.6    14    3.6   154     5.4   737.9    0.00 
 303   10:00   0.58   60.5    13    3.3   214     6.6   737.9    0.00 
 303   10:10   0.60   61.3    13    3.6   186     7.2   737.9    0.00 
 303   10:20   0.61   61.7    13    3.8   161     7.2   737.8    0.00 
 303   10:30   0.63   62.8    13    3.9   178     7.8   737.8    0.00 
 303   10:40   0.64   62.5    14    5.9   185    11.3   737.7    0.00 
 303   10:50   0.66   62.5    14    6.1   169    10.8   737.7    0.00 
 303   11:00   0.67   62.1    14    6.8   150    12.5   737.7    0.00 
 303   11:10   0.67   61.6    14    7.8   140    13.1   737.7    0.00 
 303   11:20   0.68   61.5    14    6.7   151    13.1   737.7    0.00 
 303   11:30   0.69   62.9    14    3.9   118     8.4   737.6    0.00 
 303   11:40   0.69   63.3    13    5.3   173     9.6   737.6    0.00 
 303   11:50   0.69   62.4    14    7.3   139    14.3   737.4    0.00 
 303   12:00   0.69   62.6    14    5.5   127     9.0   737.4    0.00 
 303   12:10   0.69   63.2    14    5.1   169    10.2   737.4    0.00 
 303   12:20   0.69   63.2    14    7.3   156    12.5   737.2    0.00 
 303   12:30   0.68   62.7    15    7.8   155    11.9   737.1    0.00 
 303   12:40   0.67   62.1    14    7.1   168    12.5   737.1    0.00 
 303   12:50   0.67   62.0    15    6.2   156    11.9   737.0    0.00 
 303   13:00   0.65   62.6    14    6.1   160    13.1   736.9    0.00 
 303   13:10   0.64   62.6    14    7.6   161    14.9   736.8    0.00 
 303   13:20   0.63   62.2    15    6.3   145    10.8   736.8    0.00 
 303   13:30   0.61   62.7    14    6.6   162    14.3   736.7    0.00 
 303   13:40   0.59   62.9    14    6.5   168    10.8   736.7    0.00 
 303   13:50   0.57   62.5    14    6.7   193    11.9   736.7    0.00 
 303   14:00   0.56   62.8    15    5.3   207    10.8   736.7    0.00 
 303   14:10   0.53   63.4    14    5.5   193    10.2   736.7    0.00 
 303   14:20   0.51   62.6    14    6.0   211     9.0   736.7    0.00 
 303   14:30   0.48   62.5    14    6.2   185    13.7   736.7    0.00 
 303   14:40   0.46   61.9    14    7.8   159    14.3   736.7    0.00 
 303   14:50   0.43   62.3    14    6.9   173    11.3   736.8    0.00 
 303   15:00   0.41   61.3    14    8.2   151    12.5   736.8    0.00 
 303   15:10   0.39   61.6    14    5.8   178    10.2   736.8    0.00 
 303   15:20   0.36   62.3    14    5.1   229     9.0   736.9    0.00 
 303   15:30   0.33   62.1    14    5.5   236    10.2   736.9    0.00 
 303   15:40   0.29   61.5    14    5.5   253    10.2   736.9    0.00 
 303   15:50   0.26   61.2    14    4.8   242     9.0   737.0    0.00 
 303   16:00   0.23   61.8    14    4.6   260     8.4   737.0    0.00 
 303   16:10   0.20   60.1    14    5.1   233     9.0   737.1    0.00 
 303   16:20   0.17   59.9    14    4.5   230     7.2   737.1    0.00 
 303   16:30   0.14   59.9    14    3.2   240     6.6   737.1    0.00 
 303   16:40   0.10   60.0    14    2.7   231     4.8   737.2    0.00 
 303   16:50   0.07   58.6    16    2.5   207     4.2   737.2    0.00 
 303   17:00   0.03   57.0    17    2.3   145     3.6   737.2    0.00 
 303   17:10   0.01   53.6    19    2.5   103     3.6   737.3    0.00 
 303   17:20   0.00   51.8    21    2.8    85     5.4   737.4    0.00 
 303   17:30   0.00   50.3    22    3.9    97     5.4   737.5    0.00 
 303   17:40   0.00   49.5    22    3.5    85     4.8   737.7    0.00 
 303   17:50   0.00   48.6    24    3.3    73     4.8   737.8    0.00 
 303   18:00   0.00   47.9    24    3.9    99     6.0   737.9    0.00 
 303   18:10   0.00   46.6    26    4.5    68     6.0   738.0    0.00 
 303   18:20   0.00   45.4    28    4.3    53     6.0   738.1    0.00 
 303   18:30   0.00   44.6    28    3.9    38     5.4   738.1    0.00 
 303   18:40   0.00   43.6    29    3.8    35     5.4   738.1    0.00 
 303   18:50   0.00   43.5    29    4.5    34     7.2   738.2    0.00 
 303   19:00   0.00   42.8    31    4.6    35     5.4   738.2    0.00 
 303   19:10   0.00   41.8    32    4.6    33     5.4   738.1    0.00 
 303   19:20   0.00   41.1    33    4.0    40     5.4   738.1    0.00 
 303   19:30   0.00   42.3    31    3.9    75     6.0   738.1    0.00 
 303   19:40   0.00   43.8    30    3.6    74     5.4   738.2    0.00 
 303   19:50   0.00   43.2    32    3.8    64     5.4   738.3    0.00 
 303   20:00   0.00   42.3    34    3.2    45     4.8   738.3    0.00 
 303   20:10   0.00   40.9    36    3.8    32     5.4   738.3    0.00 
 303   20:20   0.00   39.9    39    4.2    41     5.4   738.3    0.00 
 303   20:30   0.00   39.6    40    4.2    33     5.4   738.3    0.00 
 303   20:40   0.00   39.2    41    4.3    36     6.0   738.4    0.00 
 303   20:50   0.00   39.2    41    3.8    42     4.8   738.5    0.00 
 303   21:00   0.00   40.0    40    4.3    64     7.2   738.5    0.00 
 303   21:10   0.00   40.5    39    4.6    65     7.2   738.6    0.00 
 303   21:20   0.00   41.1    38    4.5    66     7.2   738.6    0.00 
 303   21:30   0.00   40.5    39    4.0    57     7.2   738.7    0.00 
 303   21:40   0.00   39.9    40    3.8    60     4.8   738.8    0.00 
 303   21:50   0.00   39.0    42    4.3    42     5.4   738.8    0.00 
 303   22:00   0.00   38.1    44    3.9    33     4.8   738.8    0.00 
 303   22:10   0.00   37.2    46    4.3    39     5.4   738.8    0.00 
 303   22:20   0.00   36.8    47    4.5    41     6.6   738.7    0.00 
 303   22:30   0.00   36.9    47    4.2    45     5.4   738.6    0.00 
 303   22:40   0.00   37.4    46    3.9    56     5.4   738.5    0.00 
 303   22:50   0.00   38.0    45    3.9    68     5.4   738.5    0.00 
 303   23:00   0.00   37.5    46    3.8    44     5.4   738.5    0.00 
 303   23:10   0.00   36.2    48    3.8    45     5.4   738.5    0.00 
 303   23:20   0.00   35.9    49    3.9    57     4.8   738.5    0.00 
 303   23:30   0.00   35.9    49    4.3    56     6.0   738.5    0.00 
 303   23:40   0.00   35.9    50    4.2    65     7.2   738.5    0.00 
 303   23:50   0.00   36.1    49    4.3    61     6.0   738.5    0.00 
 304    0:00   0.00   36.9    47    4.6    85     9.0   738.5    0.00 
 304    0:10   0.00   37.2    46    4.2    84     6.6   738.4    0.00 
 304    0:20   0.00   36.2    49    3.6    51     6.0   738.3    0.00 
 304    0:30   0.00   36.1    49    3.9    84     6.0   738.4    0.00 
 304    0:40   0.00   36.6    48    4.5    85     7.8   738.4    0.00 
 304    0:50   0.00   37.3    46    4.9   103     7.8   738.4    0.00 
 304    1:00   0.00   37.6    46    4.4    90     7.8   738.4    0.00 
 304    1:10   0.00   36.6    48    4.2    82     6.6   738.4    0.00 
 304    1:20   0.00   36.8    47    5.0    92     8.4   738.5    0.00 

Return to Valle Toledo, Valles Caldera graphs page.


Western Regional Climate Center,wrcc@dri.edu